Time;durP1;ratioP1;P1;durP2;ratioP2;P2;SDS_P1;SDS_P2;PMS_P1;PMS_P2;Temp;Humidity;BMP_temperature;BMP_pressure;BME280_temperature;BME280_humidity;BME280_pressure;Samples;Min_cycle;Max_cycle;Signal;HPM_P1;HPM_P2
2022/02/01 00:01:39;;;;;;;49.30;32.80;;;;;;;0.55;76.28;99648.53;110286;1257;21982;-79
2022/02/01 00:04:28;;;;;;;55.90;36.10;;;;;;;0.47;76.15;99649.81;110216;1259;21965;-79
2022/02/01 00:09:49;;;;;;;53.20;35.90;;;;;;;0.39;76.19;99652.87;110716;1250;22205;-80
2022/02/01 00:12:34;;;;;;;50.10;35.10;;;;;;;0.39;76.13;99655.14;110896;1250;21957;-78
2022/02/01 00:36:37;;;;;;;63.60;35.20;;;;;;;0.35;75.93;99692.30;110933;1250;21931;-78
2022/02/01 00:39:12;;;;;;;46.50;34.10;;;;;;;0.36;76.13;99694.30;110891;1250;22597;-77
2022/02/01 00:41:53;;;;;;;58.10;34.70;;;;;;;0.37;75.96;99698.77;110526;1256;22418;-77
2022/02/01 00:44:24;;;;;;;49.60;34.30;;;;;;;0.35;75.81;99706.87;110443;1253;23023;-78
2022/02/01 00:46:57;;;;;;;50.40;35.50;;;;;;;0.32;75.83;99711.64;110178;1259;22983;-78
2022/02/01 00:49:29;;;;;;;52.40;37.30;;;;;;;0.31;75.87;99714.85;110185;1259;21983;-78
2022/02/01 00:52:06;;;;;;;58.80;35.60;;;;;;;0.30;75.81;99719.44;109186;1263;22192;-78
2022/02/01 00:54:38;;;;;;;48.30;33.70;;;;;;;0.28;75.84;99722.30;109276;1265;22076;-78
2022/02/01 00:57:11;;;;;;;56.30;34.70;;;;;;;0.29;75.90;99722.98;109206;1264;21998;-78
2022/02/01 00:59:40;;;;;;;55.90;37.10;;;;;;;0.29;75.78;99721.59;109333;1261;22010;-78
2022/02/01 01:02:13;;;;;;;53.70;35.50;;;;;;;0.28;75.74;99724.09;109734;1261;21969;-78
2022/02/01 01:04:52;;;;;;;50.60;34.20;;;;;;;0.26;75.72;99724.37;109026;1263;21977;-78
2022/02/01 01:07:21;;;;;;;57.70;38.80;;;;;;;0.26;75.65;99721.98;109309;1262;22763;-78
2022/02/01 01:09:52;;;;;;;62.20;38.00;;;;;;;0.26;75.69;99726.98;109893;1256;23684;-78
2022/02/01 01:12:27;;;;;;;51.30;37.30;;;;;;;0.27;75.57;99730.72;109615;1262;22005;-77
2022/02/01 01:15:20;;;;;;;56.20;36.10;;;;;;;0.27;75.47;99732.66;109510;1262;23055;-78
2022/02/01 01:46:08;;;;;;;49.50;31.40;;;;;;;0.16;75.86;99757.38;109127;1267;21976;-77
2022/02/01 01:53:09;;;;;;;43.30;30.60;;;;;;;0.22;75.75;99763.11;109387;1263;22269;-77
2022/02/01 01:54:23;;;;;;;49.40;31.80;;;;;;;0.27;75.81;99765.02;110283;1257;21989;-78
2022/02/01 01:56:56;;;;;;;41.70;30.60;;;;;;;0.31;75.74;99765.06;110027;1259;23776;-78
2022/02/01 01:59:26;;;;;;;45.20;30.20;;;;;;;0.33;75.68;99764.39;110036;1258;21977;-78
2022/02/01 02:02:05;;;;;;;43.70;28.80;;;;;;;0.34;75.48;99760.64;109675;1261;22035;-78
2022/02/01 02:04:46;;;;;;;40.70;29.70;;;;;;;0.34;75.36;99759.82;110607;1250;23584;-78
2022/02/01 02:07:27;;;;;;;;;;;;;;;;;;;;;
2022/02/01 02:09:56;;;;;;;46.50;31.90;;;;;;;0.34;75.25;99769.32;110966;1250;21975;-78
2022/02/01 02:12:50;;;;;;;41.50;32.10;;;;;;;0.36;75.33;99771.90;110740;1250;23628;-78
2022/02/01 02:15:43;;;;;;;50.00;33.30;;;;;;;0.41;75.30;99773.95;110743;1250;22746;-77
2022/02/01 02:18:13;;;;;;;50.40;32.90;;;;;;;0.45;75.17;99773.18;110589;1251;22334;-79
2022/02/01 02:20:58;;;;;;;49.20;31.90;;;;;;;0.47;75.16;99769.40;110603;1251;21968;-78
2022/02/01 02:23:41;;;;;;;49.30;30.90;;;;;;;0.50;75.10;99776.45;110562;1250;21949;-79
2022/02/01 02:26:18;;;;;;;46.40;32.00;;;;;;;0.54;75.11;99781.48;110646;1252;21995;-78
2022/02/01 02:28:48;;;;;;;40.80;31.10;;;;;;;0.58;75.06;99782.20;110669;1251;23667;-78
2022/02/01 02:31:23;;;;;;;50.00;31.30;;;;;;;0.60;74.88;99780.54;110752;1251;23690;-78
2022/02/01 02:34:06;;;;;;;44.60;30.30;;;;;;;0.60;74.75;99777.73;110580;1250;21975;-77
2022/02/01 02:36:48;;;;;;;45.10;29.90;;;;;;;0.60;74.78;99779.63;110462;1254;21946;-78
2022/02/01 02:39:29;;;;;;;46.70;30.30;;;;;;;0.57;74.66;99778.62;109968;1259;22009;-79
2022/02/01 02:42:12;;;;;;;48.10;32.80;;;;;;;0.54;74.60;99780.14;109919;1259;22091;-77
2022/02/01 02:45:09;;;;;;;47.90;33.90;;;;;;;0.51;74.54;99782.45;109966;1259;23032;-78
2022/02/01 02:47:39;;;;;;;47.00;32.50;;;;;;;0.50;74.50;99784.05;109340;1264;21986;-78
2022/02/01 02:50:09;;;;;;;46.80;33.30;;;;;;;0.51;74.54;99783.13;109293;1265;22221;-77
2022/02/01 02:52:41;;;;;;;52.40;37.90;;;;;;;0.54;74.55;99783.75;109038;1267;23631;-78
2022/02/01 02:55:14;;;;;;;47.70;32.00;;;;;;;0.57;74.49;99786.45;109437;1261;23063;-78
2022/02/01 02:57:46;;;;;;;43.40;30.40;;;;;;;0.56;74.37;99783.25;110044;1256;23033;-77
2022/02/01 03:00:15;;;;;;;37.70;28.40;;;;;;;0.53;74.33;99785.06;110439;1256;21948;-78
2022/02/01 03:02:45;;;;;;;40.80;28.30;;;;;;;0.49;74.21;99779.07;109611;1261;21974;-78
2022/02/01 03:05:16;;;;;;;42.40;30.30;;;;;;;0.46;74.20;99776.20;109873;1256;23554;-76
2022/02/01 03:07:50;;;;;;;41.60;29.80;;;;;;;0.42;74.03;99768.15;110039;1257;21973;-78
2022/02/01 03:10:20;;;;;;;41.20;30.50;;;;;;;0.38;73.96;99765.36;110210;1256;22070;-77
2022/02/01 03:13:09;;;;;;;41.90;28.50;;;;;;;0.34;73.93;99769.11;109705;1262;21992;-78
2022/02/01 03:15:46;;;;;;;;;;;;;;;0.32;74.03;99770.15;109873;1261;21979;-78
2022/02/01 03:21:10;;;;;;;49.40;32.20;;;;;;;0.21;74.20;99772.58;109902;1260;21992;-78
2022/02/01 03:23:39;;;;;;;48.10;31.10;;;;;;;0.19;74.10;99781.06;110019;1260;24370;-77
2022/02/01 03:26:14;;;;;;;;;;;;;;;0.18;74.17;99784.88;110023;1259;23593;-77
2022/02/01 03:28:44;;;;;;;44.60;30.40;;;;;;;0.14;74.29;99789.17;110196;1257;23046;-78
2022/02/01 03:31:14;;;;;;;45.20;29.90;;;;;;;0.14;74.42;99791.46;110260;1254;21966;-78
2022/02/01 03:33:50;;;;;;;46.20;29.80;;;;;;;0.17;74.50;99788.98;110399;1255;22031;-79
2022/02/01 03:36:24;;;;;;;46.40;33.10;;;;;;;0.18;74.43;99787.50;110560;1251;22254;-78
2022/02/01 03:38:59;;;;;;;49.50;31.80;;;;;;;0.17;74.33;99787.71;110617;1252;23046;-78
2022/02/01 03:41:29;;;;;;;46.20;33.90;;;;;;;0.16;74.30;99788.02;110015;1259;21986;-77
2022/02/01 03:44:04;;;;;;;46.00;34.00;;;;;;;0.16;74.42;99786.43;110096;1258;22355;-77
2022/02/01 03:46:36;;;;;;;54.80;33.30;;;;;;;0.17;74.55;99785.11;110136;1258;22419;-78
2022/02/01 03:49:05;;;;;;;42.70;30.80;;;;;;;0.17;74.40;99784.79;110389;1257;22168;-77
2022/02/01 03:51:39;;;;;;;48.30;32.80;;;;;;;0.18;74.48;99785.27;110323;1258;22843;-77
2022/02/01 03:54:09;;;;;;;47.50;33.10;;;;;;;0.19;74.43;99785.03;110358;1256;22029;-79
2022/02/01 03:56:38;;;;;;;50.90;36.50;;;;;;;0.19;74.47;99783.27;110388;1257;21981;-78
2022/02/01 03:59:11;;;;;;;48.20;33.70;;;;;;;0.19;74.52;99790.86;110546;1249;21959;-78
2022/02/01 04:01:42;;;;;;;46.90;33.70;;;;;;;0.20;74.50;99792.21;110896;1250;22757;-78
2022/02/01 04:04:33;;;;;;;45.90;33.40;;;;;;;0.21;74.55;99798.33;110705;1251;21982;-78
2022/02/01 04:07:09;;;;;;;48.80;34.10;;;;;;;0.22;74.49;99799.83;110617;1251;197721;-78
2022/02/01 04:09:38;;;;;;;49.60;34.30;;;;;;;0.23;74.34;99801.88;110352;1256;23672;-78
2022/02/01 04:12:09;;;;;;;45.10;33.10;;;;;;;0.22;74.41;99802.23;110373;1257;23596;-78
2022/02/01 04:14:39;;;;;;;43.60;32.70;;;;;;;0.23;74.43;99799.96;110375;1257;21971;-77
2022/02/01 04:17:10;;;;;;;49.60;33.80;;;;;;;0.24;74.52;99800.39;110222;1259;22057;-77
2022/02/01 04:19:42;;;;;;;43.80;33.10;;;;;;;0.26;74.42;99799.90;109997;1260;21962;-77
2022/02/01 04:22:15;;;;;;;47.80;33.50;;;;;;;0.29;74.45;99798.13;109561;1261;23666;-78
2022/02/01 04:24:53;;;;;;;45.00;32.40;;;;;;;0.31;74.46;99802.83;109949;1262;21978;-78
2022/02/01 04:27:31;;;;;;;40.00;31.80;;;;;;;0.32;74.57;99806.21;110012;1256;21977;-78
2022/02/01 04:30:08;;;;;;;46.10;33.50;;;;;;;0.32;74.42;99810.89;109954;1262;21987;-79
2022/02/01 04:32:47;;;;;;;50.90;34.30;;;;;;;0.29;74.22;99807.48;109810;1262;21995;-77
2022/02/01 04:35:40;;;;;;;47.40;33.30;;;;;;;0.25;74.24;99805.19;109252;1265;23845;-78
2022/02/01 04:38:16;;;;;;;49.60;34.70;;;;;;;0.20;74.25;99803.99;109411;1262;22341;-78
2022/02/01 04:40:52;;;;;;;55.10;37.50;;;;;;;0.15;74.29;99805.54;109531;1263;21975;-78
2022/02/01 04:43:24;;;;;;;53.00;37.20;;;;;;;0.12;74.34;99808.52;109580;1263;23685;-78
2022/02/01 04:46:03;;;;;;;51.30;37.80;;;;;;;0.09;74.44;99808.63;109590;1261;23670;-78
2022/02/01 04:48:35;;;;;;;44.00;35.20;;;;;;;0.06;74.41;99815.62;109982;1254;23649;-77
2022/02/01 04:51:18;;;;;;;48.30;34.20;;;;;;;0.04;74.61;99822.34;110324;1255;22102;-77
2022/02/01 04:53:51;;;;;;;47.00;36.00;;;;;;;0.02;74.62;99830.08;110657;1251;22766;-78
2022/02/01 04:56:38;;;;;;;46.20;31.40;;;;;;;0.02;74.62;99839.80;110668;1251;22828;-78
2022/02/01 04:59:13;;;;;;;44.90;30.50;;;;;;;0.04;74.79;99846.23;110409;1255;21966;-78
2022/02/01 05:01:42;;;;;;;43.00;30.00;;;;;;;0.06;74.84;99844.51;110445;1256;21980;-78
2022/02/01 05:04:19;;;;;;;40.90;28.60;;;;;;;0.08;74.70;99846.59;110439;1254;23118;-78
2022/02/01 05:06:54;;;;;;;36.90;27.40;;;;;;;0.08;74.71;99851.83;110389;1256;24179;-78
2022/02/01 05:09:25;;;;;;;37.90;26.30;;;;;;;0.08;74.65;99849.41;110313;1256;23637;-78
2022/02/01 05:11:59;;;;;;;39.00;23.20;;;;;;;0.08;74.57;99851.30;110095;1259;21971;-78
2022/02/01 05:14:50;;;;;;;36.30;23.20;;;;;;;0.07;74.53;99850.14;109926;1262;21973;-79
2022/02/01 05:17:23;;;;;;;33.00;21.80;;;;;;;0.04;74.54;99844.98;109853;1254;24189;-79
2022/02/01 05:19:58;;;;;;;34.50;20.70;;;;;;;0.02;74.49;99842.95;110358;1256;21957;-79
2022/02/01 05:22:32;;;;;;;31.90;21.30;;;;;;;-0.02;74.47;99843.02;109690;1263;22050;-79
2022/02/01 05:25:05;;;;;;;32.70;20.10;;;;;;;-0.05;74.53;99841.81;109690;1261;22417;-78
2022/02/01 05:27:38;;;;;;;35.60;21.40;;;;;;;-0.06;74.55;99836.70;108907;1267;23819;-78
2022/02/01 05:30:11;;;;;;;29.10;21.20;;;;;;;-0.07;74.57;99825.67;109186;1264;23048;-78
2022/02/01 05:32:46;;;;;;;33.20;23.80;;;;;;;-0.06;74.56;99822.52;109816;1261;21978;-78
2022/02/01 05:35:17;;;;;;;34.00;22.60;;;;;;;-0.05;74.50;99823.98;109031;1267;21985;-78
2022/02/01 05:37:47;;;;;;;31.00;20.20;;;;;;;-0.02;74.50;99820.86;108890;1270;23700;-77
2022/02/01 05:40:28;;;;;;;27.00;18.70;;;;;;;-0.01;74.43;99811.95;109243;1262;23035;-77
2022/02/01 05:43:04;;;;;;;29.10;19.10;;;;;;;-0.00;74.41;99809.49;109945;1260;23741;-78
2022/02/01 05:45:35;;;;;;;33.80;20.50;;;;;;;-0.01;74.31;99808.52;110090;1256;23046;-78
2022/02/01 05:48:05;;;;;;;37.70;25.20;;;;;;;-0.03;74.23;99806.00;109833;1260;22078;-78
2022/02/01 05:50:43;;;;;;;37.80;17.50;;;;;;;-0.03;74.23;99803.23;109571;1261;21988;-79
2022/02/01 05:53:17;;;;;;;32.40;18.20;;;;;;;-0.03;74.19;99796.70;109858;1257;21981;-78
2022/02/01 05:55:48;;;;;;;34.80;19.50;;;;;;;-0.04;74.21;99793.42;110363;1259;22452;-78
2022/02/01 05:58:18;;;;;;;30.70;17.80;;;;;;;-0.03;74.15;99791.16;110331;1256;21981;-77
2022/02/01 06:00:48;;;;;;;31.40;19.10;;;;;;;-0.03;74.13;99795.95;110322;1259;22041;-77
2022/02/01 06:03:18;;;;;;;33.10;20.60;;;;;;;-0.02;74.01;99805.09;110002;1260;22857;-79
2022/02/01 06:05:59;;;;;;;35.20;24.10;;;;;;;-0.02;74.01;99813.41;110088;1255;23243;-78
2022/02/01 06:08:37;;;;;;;38.50;26.30;;;;;;;-0.03;74.04;99820.52;110490;1254;22955;-77
2022/02/01 06:11:11;;;;;;;41.60;25.70;;;;;;;-0.03;74.08;99826.95;110430;1254;23822;-77
2022/02/01 06:13:54;;;;;;;35.30;24.20;;;;;;;-0.02;73.93;99833.67;110351;1256;22736;-77
2022/02/01 06:16:26;;;;;;;42.10;27.20;;;;;;;-0.03;74.01;99839.44;110390;1256;21969;-77
2022/02/01 06:19:02;;;;;;;42.30;26.10;;;;;;;0.01;74.22;99836.54;109856;1261;23824;-78
2022/02/01 06:21:34;;;;;;;52.70;27.00;;;;;;;0.05;74.19;99832.48;109902;1257;21968;-78
2022/02/01 06:24:06;;;;;;;;;;;;;;;0.08;74.26;99829.15;110482;1257;21974;-77
2022/02/01 06:26:38;;;;;;;59.50;29.00;;;;;;;0.05;74.39;99831.44;110432;1255;21956;-78
2022/02/01 06:29:13;;;;;;;50.10;27.50;;;;;;;0.05;74.43;99834.17;110244;1256;23567;-77
2022/02/01 06:31:50;;;;;;;42.90;24.80;;;;;;;0.07;74.27;99840.80;110556;1254;21966;-78
2022/02/01 06:34:22;;;;;;;29.40;20.80;;;;;;;0.05;74.02;99844.80;110177;1256;23698;-78
2022/02/01 06:36:51;;;;;;;37.50;22.20;;;;;;;0.03;74.09;99849.60;110122;1254;22973;-78
2022/02/01 06:39:23;;;;;;;30.40;20.60;;;;;;;0.02;74.11;99850.67;110628;1254;22831;-78
2022/02/01 06:41:57;;;;;;;29.40;20.10;;;;;;;0.01;74.09;99854.37;110569;1254;22110;-78
2022/02/01 06:44:37;;;;;;;38.20;23.80;;;;;;;0.01;74.25;99852.10;110628;1254;22734;-78
2022/02/01 06:47:12;;;;;;;39.90;24.70;;;;;;;0.06;74.43;99853.87;110498;1254;21961;-79
2022/02/01 06:49:46;;;;;;;42.30;24.90;;;;;;;0.11;74.42;99852.05;110117;1257;23030;-78
2022/02/01 06:52:15;;;;;;;28.60;21.80;;;;;;;0.19;74.52;99858.77;109117;1266;22932;-78
2022/02/01 06:54:45;;;;;;;37.70;22.70;;;;;;;0.24;74.45;99858.20;109368;1261;22709;-77
2022/02/01 06:57:16;;;;;;;31.70;21.70;;;;;;;0.24;74.06;99858.94;109969;1261;22105;-78
2022/02/01 06:59:48;;;;;;;36.20;23.70;;;;;;;0.24;74.22;99874.33;109927;1262;22046;-79
2022/02/01 07:02:18;;;;;;;31.30;23.20;;;;;;;0.29;74.47;99871.55;109851;1262;23792;-78
2022/02/01 07:04:50;;;;;;;32.20;19.70;;;;;;;0.34;74.45;99867.76;109840;1262;23595;-78
2022/02/01 07:07:22;;;;;;;30.30;22.70;;;;;;;0.35;74.40;99873.16;109809;1258;22038;-77
2022/02/01 07:09:54;;;;;;;32.60;22.30;;;;;;;0.38;74.43;99867.42;110357;1251;21985;-78
2022/02/01 07:12:23;;;;;;;38.20;23.90;;;;;;;0.39;74.37;99861.80;110716;1251;22481;-78
2022/02/01 07:14:53;;;;;;;34.00;23.10;;;;;;;0.43;74.35;99858.02;110422;1254;21998;-77
2022/02/01 07:17:22;;;;;;;33.50;21.70;;;;;;;0.48;74.27;99848.70;110365;1254;23112;-79
2022/02/01 07:19:52;;;;;;;33.00;21.90;;;;;;;0.52;74.23;99843.29;110489;1256;21976;-77
2022/02/01 07:22:34;;;;;;;33.60;21.70;;;;;;;0.57;74.17;99842.64;110651;1254;22079;-75
2022/02/01 07:25:23;;;;;;;31.70;20.00;;;;;;;0.60;74.00;99849.47;110253;1256;23689;-78
2022/02/01 07:27:53;;;;;;;24.90;18.80;;;;;;;0.64;73.87;99850.91;110399;1254;23325;-79
2022/02/01 07:30:27;;;;;;;29.70;19.90;;;;;;;0.65;73.71;99849.25;110613;1256;23030;-79
2022/02/01 07:33:02;;;;;;;28.60;19.60;;;;;;;0.65;73.57;99854.29;110681;1250;22064;-77
2022/02/01 07:35:31;;;;;;;35.20;20.30;;;;;;;0.66;73.32;99848.84;110130;1257;22369;-78
2022/02/01 07:38:03;;;;;;;35.70;20.80;;;;;;;0.67;73.23;99849.29;110356;1257;23792;-77
2022/02/01 07:40:38;;;;;;;36.10;23.10;;;;;;;0.70;73.12;99846.29;109691;1260;21969;-77
2022/02/01 07:43:09;;;;;;;37.70;24.00;;;;;;;0.76;73.17;99844.81;109636;1262;23061;-78
2022/02/01 07:45:41;;;;;;;43.50;25.00;;;;;;;0.84;73.05;99847.48;109457;1264;23138;-76
2022/02/01 07:48:11;;;;;;;40.00;24.60;;;;;;;0.90;72.90;99851.66;109252;1266;23602;-76
2022/02/01 07:50:42;;;;;;;41.20;25.50;;;;;;;0.96;72.81;99848.31;109111;1267;21983;-77
2022/02/01 07:53:12;;;;;;;46.60;29.50;;;;;;;1.02;72.76;99852.88;109004;1267;22342;-79
2022/02/01 07:55:41;;;;;;;50.90;30.40;;;;;;;1.08;72.71;99858.27;109132;1267;23783;-77
2022/02/01 07:58:13;;;;;;;43.60;31.00;;;;;;;1.13;72.61;99850.92;109168;1263;22306;-79
2022/02/01 08:00:43;;;;;;;53.90;31.50;;;;;;;1.16;72.41;99846.73;109912;1257;21979;-83
2022/02/01 08:03:13;;;;;;;43.50;30.40;;;;;;;1.15;72.23;99845.20;110611;1251;22068;-83
2022/02/01 08:05:45;;;;;;;51.00;32.40;;;;;;;1.14;72.07;99845.48;110951;1254;21962;-82
2022/02/01 08:08:18;;;;;;;55.10;34.10;;;;;;;1.12;71.99;99840.95;110708;1251;22206;-84
2022/02/01 08:10:51;;;;;;;55.10;36.70;;;;;;;1.13;72.11;99838.29;109867;1260;21976;-83
2022/02/01 08:19:14;;;;;;;60.00;33.90;;;;;;;1.24;72.38;99827.52;109964;1260;22979;-83
2022/02/01 08:22:08;;;;;;;40.30;26.30;;;;;;;1.31;72.49;99818.84;109546;1267;23734;-82
2022/02/01 08:24:39;;;;;;;49.80;27.60;;;;;;;1.36;72.54;99806.23;109009;1268;21982;-82
2022/02/01 08:27:08;;;;;;;42.60;27.60;;;;;;;1.45;72.71;99807.28;108755;1274;23075;-81
2022/02/01 08:29:38;;;;;;;46.00;27.00;;;;;;;1.56;72.73;99810.57;108780;1273;21995;-79
2022/02/01 08:32:09;;;;;;;52.50;26.60;;;;;;;1.68;72.89;99805.95;108883;1271;21981;-80
2022/02/01 08:34:41;;;;;;;48.30;25.90;;;;;;;1.76;72.50;99809.64;108573;1276;22014;-82
2022/02/01 08:37:38;;;;;;;39.20;24.10;;;;;;;1.76;72.12;99808.95;108849;1273;22000;-83
2022/02/01 08:40:16;;;;;;;39.90;23.40;;;;;;;1.68;71.60;99810.99;108569;1276;22954;-84
2022/02/01 08:42:47;;;;;;;40.10;26.00;;;;;;;1.63;71.63;99814.53;108555;1279;24352;-83
2022/02/01 08:45:23;;;;;;;34.20;22.20;;;;;;;1.60;71.47;99818.20;108684;1273;23651;-83
2022/02/01 08:48:00;;;;;;;40.10;21.60;;;;;;;1.57;71.14;99815.73;109115;1263;21977;-82
2022/02/01 08:50:36;;;;;;;35.90;22.10;;;;;;;1.57;71.24;99808.39;109021;1267;22070;-83
2022/02/01 08:53:18;;;;;;;37.90;19.90;;;;;;;1.61;71.27;99815.05;108911;1273;22004;-83
2022/02/01 08:58:30;;;;;;;30.30;19.60;;;;;;;1.72;71.14;99806.02;108833;1267;21985;-81
2022/02/01 09:01:01;;;;;;;26.20;17.00;;;;;;;1.72;70.87;99801.11;109412;1266;22059;-83
2022/02/01 09:03:32;;;;;;;30.40;19.30;;;;;;;1.70;70.73;99800.61;108790;1273;22198;-82
2022/02/01 09:06:07;;;;;;;28.90;18.10;;;;;;;1.66;70.46;99799.20;108724;1273;21989;-82
2022/02/01 09:08:47;;;;;;;29.10;17.90;;;;;;;1.62;70.47;99801.20;108787;1270;21998;-82
2022/02/01 09:11:21;;;;;;;25.70;17.10;;;;;;;1.57;70.12;99798.19;108615;1274;22169;-83
2022/02/01 09:13:51;;;;;;;33.50;22.00;;;;;;;1.51;69.98;99790.48;108455;1279;21997;-82
2022/02/01 09:16:21;;;;;;;37.60;23.00;;;;;;;1.50;70.04;99794.42;107915;1283;22009;-82
2022/02/01 09:19:08;;;;;;;34.40;21.10;;;;;;;1.52;70.13;99789.23;107775;1287;23115;-81
2022/02/01 09:21:45;;;;;;;30.90;18.60;;;;;;;1.53;70.10;99782.18;107765;1287;22545;-81
2022/02/01 09:24:15;;;;;;;45.10;25.60;;;;;;;1.54;70.14;99771.90;107923;1283;23088;-82
2022/02/01 09:26:48;;;;;;;47.50;32.20;;;;;;;1.51;70.21;99767.46;107462;1288;24443;-82
2022/02/01 09:29:31;;;;;;;39.20;24.50;;;;;;;1.47;70.32;99768.79;108040;1276;23088;-82
2022/02/01 09:32:05;;;;;;;40.40;24.70;;;;;;;1.49;70.66;99766.92;108583;1270;22156;-81
2022/02/01 09:34:52;;;;;;;41.10;26.70;;;;;;;1.51;70.72;99763.08;109028;1264;23133;-82
2022/02/01 09:37:27;;;;;;;45.90;30.80;;;;;;;1.51;70.79;99753.88;109293;1263;23706;-82
2022/02/01 09:39:57;;;;;;;46.80;35.60;;;;;;;1.53;70.93;99758.26;108997;1270;24326;-82
2022/02/01 09:42:27;;;;;;;41.10;29.10;;;;;;;1.55;71.19;99756.86;108876;1270;22028;-82
2022/02/01 09:45:02;;;;;;;41.20;28.80;;;;;;;1.58;71.27;99761.02;109304;1263;21980;-83
2022/02/01 09:48:00;;;;;;;44.10;29.10;;;;;;;1.61;71.50;99759.01;110029;1260;21984;-82
2022/02/01 09:50:33;;;;;;;50.60;31.00;;;;;;;1.69;71.85;99755.77;109699;1260;22083;-82
2022/02/01 09:53:17;;;;;;;45.20;29.40;;;;;;;1.77;71.87;99752.08;109606;1261;21994;-83
2022/02/01 09:55:50;;;;;;;37.70;28.00;;;;;;;1.80;71.81;99746.98;109864;1263;21937;-82
2022/02/01 09:58:47;;;;;;;48.30;34.80;;;;;;;1.83;71.91;99737.40;110201;1254;23684;-82
2022/02/01 10:01:30;;;;;;;41.50;30.60;;;;;;;1.84;71.97;99738.62;110643;1257;23133;-82
2022/02/01 10:04:08;;;;;;;46.90;28.80;;;;;;;1.86;72.09;99740.73;110452;1257;22397;-81
2022/02/01 10:06:47;;;;;;;37.80;24.20;;;;;;;1.90;72.03;99741.65;110201;1260;21976;-83
2022/02/01 10:09:36;;;;;;;36.40;23.70;;;;;;;1.89;71.99;99747.45;110050;1260;23049;-82
2022/02/01 10:12:19;;;;;;;40.20;25.00;;;;;;;1.91;72.23;99738.25;110175;1257;21973;-82
2022/02/01 10:15:00;;;;;;;39.50;24.40;;;;;;;1.96;72.28;99737.36;109484;1266;23555;-83
2022/02/01 10:17:56;;;;;;;35.90;25.50;;;;;;;1.99;72.30;99736.80;109563;1263;22012;-81
2022/02/01 10:20:46;;;;;;;38.40;21.90;;;;;;;1.99;72.35;99736.80;109817;1261;22384;-81
2022/02/01 10:23:27;;;;;;;34.70;22.00;;;;;;;1.98;72.37;99734.21;109835;1263;23800;-81
2022/02/01 10:26:17;;;;;;;39.00;22.80;;;;;;;1.98;72.44;99724.17;109335;1267;23758;-81
2022/02/01 10:37:01;;;;;;;43.20;23.40;;;;;;;2.03;73.15;99712.59;109532;1263;22328;-80
2022/02/01 10:39:34;;;;;;;40.00;23.70;;;;;;;2.08;73.24;99711.17;109970;1263;24383;-82
2022/02/01 10:42:09;;;;;;;46.00;25.50;;;;;;;2.12;73.28;99707.55;109460;1263;22852;-80
2022/02/01 10:45:08;;;;;;;33.60;22.70;;;;;;;2.17;73.26;99705.74;109541;1266;21999;-81
2022/02/01 10:47:43;;;;;;;40.10;23.00;;;;;;;2.21;73.30;99695.14;109278;1260;22363;-80
2022/02/01 10:50:18;;;;;;;44.00;24.90;;;;;;;2.23;73.16;99689.06;110164;1257;22188;-81
2022/02/01 10:52:50;;;;;;;38.70;24.10;;;;;;;2.23;73.19;99686.05;110626;1257;22437;-80
2022/02/01 10:55:22;;;;;;;44.10;24.00;;;;;;;2.28;73.30;99677.11;110441;1257;21978;-81
2022/02/01 10:57:52;;;;;;;43.40;27.60;;;;;;;2.31;73.20;99672.85;110522;1255;23734;-81
2022/02/01 11:00:23;;;;;;;;;;;;;;;2.29;73.05;99665.43;110230;1257;21967;-81
2022/02/01 11:02:55;;;;;;;60.80;34.80;;;;;;;2.21;73.17;99659.37;110397;1255;21975;-80
2022/02/01 11:05:27;;;;;;;60.30;39.60;;;;;;;2.21;73.38;99648.23;110583;1256;21963;-80
2022/02/01 11:08:08;;;;;;;54.70;34.30;;;;;;;2.27;73.54;99644.58;110048;1260;21971;-81
2022/02/01 11:10:51;;;;;;;41.40;28.80;;;;;;;2.31;73.38;99640.39;109853;1262;21974;-81
2022/02/01 11:13:21;;;;;;;41.40;30.70;;;;;;;2.30;73.38;99630.75;109850;1261;21998;-80
2022/02/01 11:16:07;;;;;;;46.90;29.00;;;;;;;2.31;73.42;99629.29;109667;1261;21969;-80
2022/02/01 11:18:37;;;;;;;37.10;25.40;;;;;;;2.33;73.55;99631.73;109506;1261;22055;-80
2022/02/01 11:21:14;;;;;;;41.30;28.90;;;;;;;2.36;73.64;99628.17;109181;1267;21995;-81
2022/02/01 11:23:55;;;;;;;39.20;27.20;;;;;;;2.36;73.64;99616.16;109283;1267;23042;-80
2022/02/01 11:26:50;;;;;;;49.20;35.10;;;;;;;2.35;73.66;99609.42;109466;1263;21975;-81
2022/02/01 11:30:11;;;;;;;32.10;24.40;;;;;;;2.33;73.60;99603.58;110208;1257;21975;-81
2022/02/01 11:32:40;;;;;;;43.50;31.70;;;;;;;2.30;73.45;99599.11;110112;1257;21986;-81
2022/02/01 11:35:21;;;;;;;38.80;32.00;;;;;;;2.24;73.53;99594.24;110319;1257;23718;-79
2022/02/01 11:38:20;;;;;;;39.90;28.10;;;;;;;2.18;73.53;99587.16;110526;1255;23143;-80
2022/02/01 11:41:04;;;;;;;34.80;28.00;;;;;;;2.16;73.92;99590.63;110734;1251;22057;-80
2022/02/01 11:43:40;;;;;;;31.10;24.30;;;;;;;2.18;74.15;99582.80;110846;1251;23803;-80
2022/02/01 11:46:20;;;;;;;32.40;24.40;;;;;;;2.17;73.92;99582.18;110612;1253;22072;-81
2022/02/01 11:48:52;;;;;;;27.30;21.60;;;;;;;2.17;74.04;99578.91;110475;1257;22017;-80
2022/02/01 11:51:48;;;;;;;27.10;21.80;;;;;;;2.14;73.99;99570.98;110433;1256;23682;-81
2022/02/01 11:54:25;;;;;;;30.90;22.50;;;;;;;2.10;74.15;99570.83;110420;1257;22158;-82
2022/02/01 11:57:10;;;;;;;30.90;23.90;;;;;;;2.10;74.48;99569.73;110515;1257;22068;-81
2022/02/01 11:59:54;;;;;;;28.40;21.30;;;;;;;2.15;74.52;99567.81;109625;1261;22791;-81
2022/02/01 12:02:39;;;;;;;35.40;23.50;;;;;;;2.12;74.43;99564.73;109877;1261;22061;-81
2022/02/01 12:05:36;;;;;;;33.80;22.20;;;;;;;2.07;74.35;99568.48;109957;1260;22324;-80
2022/02/01 12:08:15;;;;;;;34.00;25.10;;;;;;;2.03;74.55;99569.19;109697;1260;21961;-80
2022/02/01 12:10:51;;;;;;;33.90;23.30;;;;;;;2.00;74.59;99566.85;109545;1260;23624;-80
2022/02/01 12:13:27;;;;;;;35.10;24.80;;;;;;;1.98;74.75;99565.79;110033;1254;21978;-81
2022/02/01 12:16:03;;;;;;;33.00;21.50;;;;;;;1.97;74.76;99563.27;109848;1260;23584;-80
2022/02/01 12:18:54;;;;;;;41.90;30.00;;;;;;;1.94;74.80;99560.05;110023;1259;22319;-80
2022/02/01 12:21:29;;;;;;;29.80;23.10;;;;;;;1.90;74.71;99563.20;110363;1260;22954;-80
2022/02/01 12:24:05;;;;;;;29.80;21.30;;;;;;;1.88;74.83;99560.52;110596;1253;21965;-80
2022/02/01 12:26:41;;;;;;;31.70;22.70;;;;;;;1.88;74.87;99553.95;110724;1253;23821;-80
2022/02/01 12:29:13;;;;;;;26.00;19.50;;;;;;;1.88;74.90;99548.56;110491;1254;21962;-80
2022/02/01 12:31:45;;;;;;;31.60;23.80;;;;;;;1.89;75.05;99544.98;110128;1254;21984;-80
2022/02/01 12:34:17;;;;;;;20.20;15.40;;;;;;;1.94;75.22;99546.99;110487;1256;22330;-80
2022/02/01 12:36:54;;;;;;;23.30;17.40;;;;;;;2.01;75.31;99546.93;110060;1260;22024;-80
2022/02/01 12:39:32;;;;;;;25.00;18.90;;;;;;;2.06;75.23;99547.73;109588;1260;22084;-80
2022/02/01 12:42:13;;;;;;;24.80;17.40;;;;;;;2.11;75.21;99552.13;109961;1261;21982;-80
2022/02/01 12:47:24;;;;;;;22.00;15.10;;;;;;;2.25;75.01;99550.41;110113;1260;23712;-80
2022/02/01 12:50:15;;;;;;;22.80;16.30;;;;;;;2.31;74.83;99546.52;109328;1267;22992;-80
2022/02/01 12:52:44;;;;;;;25.90;17.20;;;;;;;2.33;74.49;99547.38;109593;1261;22049;-80
2022/02/01 12:55:18;;;;;;;23.50;14.80;;;;;;;2.38;74.43;99546.89;110040;1260;23191;-80
2022/02/01 12:58:15;;;;;;;20.30;15.70;;;;;;;2.43;74.30;99541.84;109763;1260;22086;-80
2022/02/01 13:00:52;;;;;;;21.40;15.70;;;;;;;2.47;74.24;99534.91;109987;1256;21963;-79
2022/02/01 13:03:41;;;;;;;23.00;14.30;;;;;;;2.52;74.12;99529.59;110562;1254;23584;-80
2022/02/01 13:06:21;;;;;;;16.50;12.30;;;;;;;2.52;73.76;99527.52;110685;1255;23696;-79
2022/02/01 13:14:52;;;;;;;21.50;13.70;;;;;;;2.49;73.12;99518.08;110218;1254;22281;-79
2022/02/01 13:17:59;;;;;;;19.70;13.90;;;;;;;2.45;72.97;99510.55;110839;1254;22365;-80
2022/02/01 13:20:29;;;;;;;21.00;15.10;;;;;;;2.39;72.80;99505.37;110832;1254;22169;-79
2022/02/01 13:23:09;;;;;;;26.10;16.20;;;;;;;2.35;72.78;99504.34;110793;1253;23751;-80
2022/02/01 13:25:44;;;;;;;38.30;23.30;;;;;;;2.34;72.87;99497.49;110796;1254;22204;-80